This is the latest recevied weather packets stored in our database for station/object KG2V. If no packets are shown the sender has not sent any weather packets the latest 1 day(s).
| Time | Temp. | Humidity | Pressure | Rain* | Wind** | Luminosity | Snow |
|---|---|---|---|---|---|---|---|
| 1777998285 | 17.78° C | 69% | 1000.6 hPa | 0 mm | 0.89 m/s, 246° | 65 W/m² | - |
| 1777997982 | 17.78° C | 68% | 1000.7 hPa | 0 mm | 1.34 m/s, 251° | 34 W/m² | - |
| 1777997678 | 17.78° C | 69% | 1000.9 hPa | 0 mm | 0.89 m/s, 244° | 34 W/m² | - |
| 1777997376 | 18.33° C | 67% | 1000.5 hPa | 0 mm | 2.68 m/s, 146° | 31 W/m² | - |
| 1777997074 | 18.33° C | 67% | 1000.3 hPa | 0 mm | 0.89 m/s, 205° | 41 W/m² | - |
| 1777996764 | 18.33° C | 68% | 1000.1 hPa | 0 mm | 1.34 m/s, 217° | 66 W/m² | - |
| 1777996461 | 18.33° C | 68% | 1000.1 hPa | 0 mm | 0.89 m/s, 188° | 53 W/m² | - |
| 1777996157 | 17.78° C | 69% | 1000.2 hPa | 0 mm | 0.45 m/s, 186° | 34 W/m² | - |
| 1777995853 | 18.33° C | 69% | 999.9 hPa | 0 mm | 0.89 m/s, 198° | 37 W/m² | - |
| 1777995550 | 18.33° C | 68% | 999.7 hPa | 0 mm | 0.89 m/s, 238° | 39 W/m² | - |
| 1777995247 | 18.33° C | 69% | 999.7 hPa | 0 mm | 0.45 m/s, 187° | 41 W/m² | - |
| 1777994944 | 18.33° C | 69% | 999.7 hPa | 0 mm | 0.45 m/s, 295° | 29 W/m² | - |
| 1777994641 | 18.33° C | 68% | 999.4 hPa | 0 mm | 0.89 m/s, 189° | 25 W/m² | - |
| 1777994341 | 18.89° C | 68% | 999.3 hPa | 0 mm | 0.89 m/s, 171° | 37 W/m² | - |
| 1777994038 | 18.89° C | 66% | 999.2 hPa | 0 mm | 1.34 m/s, 226° | 87 W/m² | - |
| 1777993730 | 19.44° C | 65% | 999 hPa | 0 mm | 1.79 m/s, 264° | 163 W/m² | - |
| 1777993427 | 18.89° C | 67% | 999.4 hPa | 0 mm | 1.34 m/s, 217° | 216 W/m² | - |
| 1777993126 | 18.89° C | 67% | 999.2 hPa | 0 mm | 0.89 m/s, 157° | 120 W/m² | - |
| 1777992825 | 18.89° C | 67% | 999.4 hPa | 0 mm | 1.34 m/s, 261° | 84 W/m² | - |
| 1777992522 | 18.89° C | 66% | 999.4 hPa | 0 mm | 0.89 m/s, 228° | 83 W/m² | - |
| 1777992221 | 19.44° C | 66% | 999.2 hPa | 0 mm | 0.89 m/s, 247° | 106 W/m² | - |
| 1777991917 | 20° C | 65% | 999.4 hPa | 0 mm | 0.89 m/s, 238° | 156 W/m² | - |
| 1777991615 | 20.56° C | 62% | 999.3 hPa | 0 mm | 1.79 m/s, 260° | 30 W/m² | - |
| 1777991311 | 20.56° C | 61% | 999.2 hPa | 0 mm | 3.13 m/s, 227° | 77 W/m² | - |
| 1777991009 | 21.11° C | 60% | 998.9 hPa | 0 mm | 0.45 m/s, 237° | 201 W/m² | - |
* Rain latest hour (hover to see other rain measurements)
** Current wind speed in m/s (hover to see current wind gust speed)